Time;durP1;ratioP1;P1;durP2;ratioP2;P2;SDS_P1;SDS_P2;PMS_P1;PMS_P2;Temp;Humidity;BMP_temperature;BMP_pressure;BME280_temperature;BME280_humidity;BME280_pressure;Samples;Min_cycle;Max_cycle;Signal;HPM_P1;HPM_P2
2022/12/14 00:01:23;;;;;;;27.63;16.63;;;;;;;;;;4991487;28;20484;-56
2022/12/14 00:03:51;;;;;;;30.95;17.52;;;;;;;;;;4991344;28;20050;-56
2022/12/14 00:06:19;;;;;;;30.33;16.92;;;;;;;;;;4991452;28;20058;-56
2022/12/14 00:08:48;;;;;;;29.42;16.80;;;;;;;;;;4991054;28;20057;-56
2022/12/14 00:11:15;;;;;;;29.85;17.55;;;;;;;;;;4991159;28;20125;-55
2022/12/14 00:13:43;;;;;;;27.95;17.20;;;;;;;;;;4991305;28;20038;-54
2022/12/14 00:16:16;;;;;;;32.28;17.48;;;;;;;;;;4991394;28;20081;-54
2022/12/14 00:18:44;;;;;;;28.33;16.80;;;;;;;;;;4991163;28;20527;-55
2022/12/14 00:21:13;;;;;;;31.17;17.60;;;;;;;;;;4990842;28;20448;-56
2022/12/14 00:23:42;;;;;;;27.38;16.38;;;;;;;;;;4989923;28;20035;-56
2022/12/14 00:26:23;;;;;;;33.17;20.00;;;;;;;;;;4990971;28;20062;-56
2022/12/14 00:28:52;;;;;;;31.63;18.52;;;;;;;;;;4991412;28;20046;-54
2022/12/14 00:31:20;;;;;;;29.38;16.67;;;;;;;;;;4990948;28;20064;-56
2022/12/14 00:33:49;;;;;;;28.75;17.85;;;;;;;;;;4991304;28;20078;-56
2022/12/14 00:36:16;;;;;;;26.95;16.08;;;;;;;;;;4990863;28;20066;-55
2022/12/14 00:38:44;;;;;;;25.90;15.73;;;;;;;;;;4991121;28;20050;-56
2022/12/14 00:41:12;;;;;;;29.67;16.98;;;;;;;;;;4990831;28;20050;-56
2022/12/14 00:43:39;;;;;;;28.23;16.45;;;;;;;;;;4990781;28;20042;-55
2022/12/14 00:46:07;;;;;;;28.65;16.55;;;;;;;;;;4990805;28;20073;-55
2022/12/14 00:48:34;;;;;;;30.42;17.30;;;;;;;;;;4990810;28;20066;-56
2022/12/14 00:51:02;;;;;;;26.52;16.13;;;;;;;;;;4990589;28;20089;-56
2022/12/14 00:53:30;;;;;;;29.15;16.55;;;;;;;;;;4990779;28;20042;-54
2022/12/14 00:55:57;;;;;;;26.67;15.75;;;;;;;;;;4990565;28;20042;-56
2022/12/14 00:58:26;;;;;;;25.05;15.25;;;;;;;;;;4990725;28;20451;-56
2022/12/14 01:00:58;;;;;;;28.00;15.75;;;;;;;;;;4989382;28;20048;-55
2022/12/14 01:03:25;;;;;;;24.25;14.68;;;;;;;;;;4990623;28;20484;-56
2022/12/14 01:05:53;;;;;;;28.13;15.73;;;;;;;;;;4990753;28;20170;-56
2022/12/14 01:08:21;;;;;;;29.95;15.40;;;;;;;;;;4990431;28;20403;-56
2022/12/14 01:10:49;;;;;;;26.35;16.40;;;;;;;;;;4990454;28;20045;-55
2022/12/14 01:13:17;;;;;;;26.77;14.77;;;;;;;;;;4990273;28;20046;-55
2022/12/14 01:15:44;;;;;;;25.42;15.18;;;;;;;;;;4988993;28;20107;-56
2022/12/14 01:18:12;;;;;;;26.10;15.27;;;;;;;;;;4989252;28;20035;-55
2022/12/14 01:20:39;;;;;;;26.58;14.90;;;;;;;;;;4990644;28;20385;-55
2022/12/14 01:23:07;;;;;;;27.73;14.93;;;;;;;;;;4993834;28;20069;-55
2022/12/14 01:25:34;;;;;;;29.52;16.20;;;;;;;;;;4992245;28;20050;-54
2022/12/14 01:28:02;;;;;;;27.85;16.25;;;;;;;;;;4993732;28;20119;-54
2022/12/14 01:30:29;;;;;;;31.63;17.00;;;;;;;;;;4993488;28;20051;-55
2022/12/14 01:32:56;;;;;;;27.33;16.05;;;;;;;;;;4993886;28;20559;-54
2022/12/14 01:35:24;;;;;;;27.52;15.30;;;;;;;;;;4993472;28;20042;-55
2022/12/14 01:37:51;;;;;;;27.17;14.60;;;;;;;;;;4993603;28;20068;-55
2022/12/14 01:40:19;;;;;;;25.42;15.00;;;;;;;;;;4993498;28;20481;-56
2022/12/14 01:42:46;;;;;;;24.13;13.88;;;;;;;;;;4992296;28;20035;-55
2022/12/14 01:45:23;;;;;;;26.58;15.25;;;;;;;;;;4993270;28;20388;-54
2022/12/14 01:47:54;;;;;;;26.38;15.02;;;;;;;;;;4993427;28;20046;-55
2022/12/14 01:50:27;;;;;;;24.65;14.75;;;;;;;;;;4993583;28;20042;-56
2022/12/14 01:52:58;;;;;;;28.73;15.70;;;;;;;;;;4993419;28;20049;-54
2022/12/14 01:55:33;;;;;;;25.88;14.88;;;;;;;;;;4993419;28;20526;-51
2022/12/14 01:58:12;;;;;;;25.42;14.60;;;;;;;;;;4993384;28;20046;-55
2022/12/14 02:00:41;;;;;;;24.65;13.52;;;;;;;;;;4993348;28;20041;-53
2022/12/14 02:03:12;;;;;;;25.98;14.25;;;;;;;;;;4993318;28;20046;-51
2022/12/14 02:05:43;;;;;;;25.38;14.70;;;;;;;;;;4993037;28;20057;-54
2022/12/14 02:08:11;;;;;;;27.10;15.18;;;;;;;;;;4993271;28;20525;-55
2022/12/14 02:10:39;;;;;;;26.45;14.52;;;;;;;;;;4993123;28;20034;-55
2022/12/14 02:13:13;;;;;;;25.00;14.88;;;;;;;;;;4993025;28;20076;-56
2022/12/14 02:15:41;;;;;;;26.58;15.30;;;;;;;;;;4991954;28;20658;-56
2022/12/14 02:18:10;;;;;;;27.48;14.73;;;;;;;;;;4991773;28;20042;-55
2022/12/14 02:20:42;;;;;;;25.75;14.10;;;;;;;;;;4992823;28;20122;-54
2022/12/14 02:23:22;;;;;;;26.08;15.13;;;;;;;;;;4993164;28;20508;-56
2022/12/14 02:26:29;;;;;;;23.98;14.00;;;;;;;;;;4992505;28;20052;-51
2022/12/14 02:28:59;;;;;;;25.85;14.35;;;;;;;;;;5013280;28;20046;-54
2022/12/14 02:31:36;;;;;;;23.85;14.52;;;;;;;;;;5013137;28;20133;-55
2022/12/14 02:34:09;;;;;;;24.65;14.57;;;;;;;;;;5001395;28;20141;-56
2022/12/14 02:36:36;;;;;;;22.13;13.80;;;;;;;;;;4992672;28;20126;-56
2022/12/14 02:39:14;;;;;;;23.63;14.48;;;;;;;;;;4992524;28;20439;-56
2022/12/14 02:41:42;;;;;;;23.00;13.48;;;;;;;;;;4992572;28;20046;-55
2022/12/14 02:44:21;;;;;;;23.83;14.32;;;;;;;;;;4992559;28;20081;-56
2022/12/14 02:47:25;;;;;;;24.67;14.30;;;;;;;;;;4992321;28;20043;-54
2022/12/14 02:50:07;;;;;;;23.92;13.90;;;;;;;;;;5012976;28;20484;-55
2022/12/14 02:52:40;;;;;;;21.80;14.00;;;;;;;;;;4991600;28;20048;-54
2022/12/14 02:55:14;;;;;;;24.33;14.93;;;;;;;;;;4992595;28;20053;-56
2022/12/14 02:57:42;;;;;;;23.10;14.93;;;;;;;;;;4992338;28;20043;-55
2022/12/14 03:00:10;;;;;;;24.40;14.75;;;;;;;;;;4992454;28;20066;-53
2022/12/14 03:02:39;;;;;;;27.88;16.67;;;;;;;;;;4992214;28;20503;-55
2022/12/14 03:05:08;;;;;;;26.13;15.52;;;;;;;;;;4992259;28;20125;-54
2022/12/14 03:07:42;;;;;;;24.17;14.20;;;;;;;;;;4992209;28;20046;-55
2022/12/14 03:10:09;;;;;;;27.52;15.57;;;;;;;;;;4991057;28;20050;-55
2022/12/14 03:12:40;;;;;;;29.02;16.33;;;;;;;;;;4992507;28;20460;-54
2022/12/14 03:15:09;;;;;;;26.20;15.13;;;;;;;;;;4992039;28;20050;-55
2022/12/14 03:17:38;;;;;;;28.60;15.73;;;;;;;;;;4992084;28;20042;-55
2022/12/14 03:20:10;;;;;;;24.65;14.45;;;;;;;;;;4992008;28;20557;-55
2022/12/14 03:22:50;;;;;;;26.42;15.25;;;;;;;;;;4991948;28;20064;-55
2022/12/14 03:25:24;;;;;;;29.75;16.13;;;;;;;;;;4990520;28;20568;-55
2022/12/14 03:28:05;;;;;;;27.70;16.63;;;;;;;;;;4991873;28;20470;-55
2022/12/14 03:30:35;;;;;;;30.38;16.80;;;;;;;;;;4991724;28;20042;-55
2022/12/14 03:33:24;;;;;;;28.65;15.18;;;;;;;;;;4990663;28;20042;-55
2022/12/14 03:35:58;;;;;;;27.10;16.05;;;;;;;;;;4991613;28;20051;-55
2022/12/14 03:38:42;;;;;;;25.80;15.80;;;;;;;;;;4991782;28;20492;-50
2022/12/14 03:41:22;;;;;;;28.65;15.32;;;;;;;;;;4991522;28;20389;-54
2022/12/14 03:43:53;;;;;;;28.02;15.27;;;;;;;;;;4990912;28;20393;-51
2022/12/14 03:46:31;;;;;;;28.88;15.95;;;;;;;;;;4991675;28;20056;-55
2022/12/14 03:49:06;;;;;;;28.77;15.85;;;;;;;;;;4991713;28;20042;-50
2022/12/14 03:51:44;;;;;;;28.77;16.08;;;;;;;;;;4991415;28;20042;-54
2022/12/14 03:54:24;;;;;;;28.15;16.63;;;;;;;;;;4991780;28;20046;-52
2022/12/14 03:56:58;;;;;;;28.00;16.38;;;;;;;;;;4990355;28;20471;-54
2022/12/14 03:59:31;;;;;;;30.67;16.48;;;;;;;;;;4991357;28;20047;-50
2022/12/14 04:02:11;;;;;;;30.65;15.90;;;;;;;;;;4990220;28;20039;-55
2022/12/14 04:04:50;;;;;;;30.55;15.77;;;;;;;;;;4991231;28;20058;-54
2022/12/14 04:07:29;;;;;;;26.63;15.77;;;;;;;;;;4991350;28;20121;-49
2022/12/14 04:09:56;;;;;;;28.70;16.15;;;;;;;;;;4991535;28;20584;-53
2022/12/14 04:21:03;;;;;;;24.33;14.00;;;;;;;;;;4991355;28;20430;-55
2022/12/14 04:26:26;;;;;;;;;;;;;;;;;;4989986;28;20108;-56
2022/12/14 04:31:45;;;;;;;23.40;13.60;;;;;;;;;;4990916;28;20039;-55
2022/12/14 04:34:16;;;;;;;21.42;13.02;;;;;;;;;;4991148;28;20042;-54
2022/12/14 04:36:50;;;;;;;25.55;14.73;;;;;;;;;;4990752;28;20042;-55
2022/12/14 04:39:22;;;;;;;24.13;13.95;;;;;;;;;;4990857;28;20047;-55
2022/12/14 04:41:53;;;;;;;25.58;14.50;;;;;;;;;;4990870;28;20043;-54
2022/12/14 04:44:24;;;;;;;23.25;14.30;;;;;;;;;;4991246;28;20050;-55
2022/12/14 04:46:53;;;;;;;22.73;14.10;;;;;;;;;;4990462;28;20054;-55
2022/12/14 04:49:26;;;;;;;25.40;14.30;;;;;;;;;;4990522;28;20096;-56
2022/12/14 04:51:57;;;;;;;21.98;13.05;;;;;;;;;;4990568;28;20057;-56
2022/12/14 04:54:38;;;;;;;22.65;13.27;;;;;;;;;;4990431;28;20043;-55
2022/12/14 04:57:12;;;;;;;22.13;13.97;;;;;;;;;;4990575;28;20042;-54
2022/12/14 04:59:45;;;;;;;21.52;13.20;;;;;;;;;;4990633;28;20130;-52
2022/12/14 05:02:18;;;;;;;23.23;13.43;;;;;;;;;;4990649;28;20492;-56
2022/12/14 05:04:55;;;;;;;23.17;13.13;;;;;;;;;;4990312;28;20134;-54
2022/12/14 05:07:22;;;;;;;23.25;14.00;;;;;;;;;;4990307;28;20045;-56
2022/12/14 05:10:00;;;;;;;24.25;14.30;;;;;;;;;;4990523;28;20038;-54
2022/12/14 05:12:38;;;;;;;21.80;13.40;;;;;;;;;;4990715;28;20047;-55
2022/12/14 05:15:08;;;;;;;23.80;13.95;;;;;;;;;;4990214;28;20426;-54
2022/12/14 05:17:40;;;;;;;23.60;14.00;;;;;;;;;;4990259;28;20087;-56
2022/12/14 05:20:18;;;;;;;24.90;13.63;;;;;;;;;;4990532;28;20043;-56
2022/12/14 05:22:46;;;;;;;23.52;13.15;;;;;;;;;;4990139;28;20084;-57
2022/12/14 05:25:13;;;;;;;23.48;14.00;;;;;;;;;;4990493;28;20434;-56
2022/12/14 05:27:41;;;;;;;22.95;13.95;;;;;;;;;;4989990;28;20108;-56
2022/12/14 05:30:09;;;;;;;23.38;13.73;;;;;;;;;;4988777;28;20093;-56
2022/12/14 05:32:36;;;;;;;23.80;14.20;;;;;;;;;;4989908;28;20104;-57
2022/12/14 05:35:04;;;;;;;28.30;15.27;;;;;;;;;;4989972;28;20121;-55
2022/12/14 05:37:31;;;;;;;24.45;15.63;;;;;;;;;;4990085;28;20101;-57
2022/12/14 05:39:59;;;;;;;25.42;14.68;;;;;;;;;;4989662;28;20408;-56
2022/12/14 05:42:26;;;;;;;23.15;13.55;;;;;;;;;;4989802;28;20039;-55
2022/12/14 05:44:54;;;;;;;26.33;14.18;;;;;;;;;;4988848;28;20395;-54
2022/12/14 05:47:21;;;;;;;26.10;14.55;;;;;;;;;;4988519;28;20046;-56
2022/12/14 05:49:49;;;;;;;26.60;16.00;;;;;;;;;;4989378;28;20057;-54
2022/12/14 05:52:16;;;;;;;29.15;16.88;;;;;;;;;;4972451;28;20377;-55
2022/12/14 05:54:44;;;;;;;24.58;16.05;;;;;;;;;;4989778;28;20038;-55
2022/12/14 05:57:12;;;;;;;24.60;14.93;;;;;;;;;;4989717;28;20049;-55
2022/12/14 05:59:39;;;;;;;28.10;14.77;;;;;;;;;;4988724;28;20080;-55
2022/12/14 06:02:07;;;;;;;27.85;14.95;;;;;;;;;;4989891;28;20054;-54
2022/12/14 06:04:34;;;;;;;25.45;14.27;;;;;;;;;;4993894;28;20034;-56
2022/12/14 06:07:02;;;;;;;27.65;15.85;;;;;;;;;;4995776;28;20049;-55
2022/12/14 06:09:30;;;;;;;23.35;13.77;;;;;;;;;;4991922;28;20175;-56
2022/12/14 06:11:57;;;;;;;23.92;14.68;;;;;;;;;;4993005;28;20046;-56
2022/12/14 06:14:24;;;;;;;27.17;16.33;;;;;;;;;;4992936;28;20550;-54
2022/12/14 06:16:52;;;;;;;30.48;16.52;;;;;;;;;;4992915;28;20060;-56
2022/12/14 06:19:19;;;;;;;27.88;15.85;;;;;;;;;;4992871;28;20073;-56
2022/12/14 06:21:47;;;;;;;28.63;15.52;;;;;;;;;;4992796;28;20125;-56
2022/12/14 06:24:14;;;;;;;27.13;16.23;;;;;;;;;;4993057;28;20434;-54
2022/12/14 06:26:42;;;;;;;28.60;16.13;;;;;;;;;;4992456;28;20066;-55
2022/12/14 06:29:17;;;;;;;27.13;16.33;;;;;;;;;;4992726;28;20076;-56
2022/12/14 06:31:44;;;;;;;;;;;;;;;;;;4992077;28;20050;-56
2022/12/14 06:34:12;;;;;;;25.55;15.68;;;;;;;;;;4992761;28;19975;-57
2022/12/14 06:36:41;;;;;;;26.20;15.40;;;;;;;;;;4992656;28;20042;-51
2022/12/14 06:39:11;;;;;;;26.42;15.73;;;;;;;;;;4992604;28;20070;-56
2022/12/14 06:41:39;;;;;;;27.33;16.05;;;;;;;;;;4992464;28;20129;-55
2022/12/14 06:44:08;;;;;;;29.08;16.70;;;;;;;;;;4994313;28;20373;-54
2022/12/14 06:46:36;;;;;;;31.27;16.85;;;;;;;;;;4992663;28;20105;-55
2022/12/14 06:49:04;;;;;;;29.88;17.30;;;;;;;;;;4991264;28;20042;-53
2022/12/14 06:51:32;;;;;;;25.90;15.82;;;;;;;;;;4992414;28;20047;-55
2022/12/14 06:53:59;;;;;;;34.83;17.38;;;;;;;;;;4992375;28;20092;-56
2022/12/14 06:56:27;;;;;;;29.13;17.27;;;;;;;;;;4992411;28;20038;-56
2022/12/14 06:58:55;;;;;;;32.80;18.55;;;;;;;;;;4992429;28;20459;-56
2022/12/14 07:01:24;;;;;;;28.52;16.52;;;;;;;;;;4992328;28;20045;-56
2022/12/14 07:03:56;;;;;;;29.33;16.88;;;;;;;;;;4992719;28;20136;-55
2022/12/14 07:06:24;;;;;;;29.27;16.35;;;;;;;;;;4991088;28;20048;-56
2022/12/14 07:08:55;;;;;;;26.88;16.67;;;;;;;;;;4992404;28;20101;-54
2022/12/14 07:11:23;;;;;;;33.25;18.42;;;;;;;;;;4992633;28;20038;-56
2022/12/14 07:13:51;;;;;;;34.75;19.23;;;;;;;;;;4992872;28;20104;-55
2022/12/14 07:16:31;;;;;;;31.02;19.02;;;;;;;;;;4991251;28;20046;-56
2022/12/14 07:18:59;;;;;;;29.20;17.65;;;;;;;;;;4992012;28;20043;-55
2022/12/14 07:21:26;;;;;;;31.05;17.85;;;;;;;;;;4992159;28;20069;-56
2022/12/14 07:23:54;;;;;;;30.90;18.67;;;;;;;;;;4992029;28;20388;-56
2022/12/14 07:26:26;;;;;;;29.92;17.75;;;;;;;;;;4991828;28;20500;-56
2022/12/14 07:28:54;;;;;;;32.80;18.45;;;;;;;;;;4992183;28;20041;-56
2022/12/14 07:31:22;;;;;;;31.27;18.50;;;;;;;;;;4992286;28;20442;-56
2022/12/14 07:33:54;;;;;;;33.00;18.90;;;;;;;;;;4991968;28;20488;-56
2022/12/14 07:36:22;;;;;;;28.40;17.00;;;;;;;;;;4991843;28;20058;-57
2022/12/14 07:38:51;;;;;;;30.80;18.48;;;;;;;;;;4991797;28;20046;-57
2022/12/14 07:41:20;;;;;;;28.42;17.88;;;;;;;;;;4991886;28;20096;-54
2022/12/14 07:43:50;;;;;;;32.88;18.10;;;;;;;;;;4991993;28;20053;-55
2022/12/14 07:46:19;;;;;;;32.28;18.73;;;;;;;;;;4991571;28;20096;-54
2022/12/14 07:48:48;;;;;;;29.90;18.77;;;;;;;;;;4991702;28;20046;-55
2022/12/14 07:51:16;;;;;;;30.50;17.17;;;;;;;;;;4991606;28;20046;-56
2022/12/14 07:53:44;;;;;;;28.38;17.23;;;;;;;;;;4991478;28;20054;-51
2022/12/14 07:56:16;;;;;;;26.45;16.73;;;;;;;;;;4991654;28;20052;-55
2022/12/14 07:58:44;;;;;;;28.05;17.13;;;;;;;;;;4991491;28;20126;-55
2022/12/14 08:01:12;;;;;;;30.92;18.48;;;;;;;;;;4991457;28;20042;-56
2022/12/14 08:03:41;;;;;;;32.35;17.88;;;;;;;;;;4991337;28;20117;-56
2022/12/14 08:06:10;;;;;;;30.73;17.30;;;;;;;;;;4991161;28;20553;-54
2022/12/14 08:08:37;;;;;;;29.80;17.42;;;;;;;;;;4991377;28;20042;-54
2022/12/14 08:11:05;;;;;;;29.75;17.77;;;;;;;;;;4991393;28;20050;-55
2022/12/14 08:13:33;;;;;;;28.08;16.17;;;;;;;;;;4991174;28;20076;-56
2022/12/14 08:16:08;;;;;;;28.52;16.95;;;;;;;;;;4991209;28;20038;-54
2022/12/14 08:18:36;;;;;;;29.08;17.60;;;;;;;;;;4991327;28;20057;-56
2022/12/14 08:21:04;;;;;;;30.42;18.15;;;;;;;;;;4991109;28;20046;-55
2022/12/14 08:23:32;;;;;;;30.20;17.92;;;;;;;;;;4991038;28;20172;-50
2022/12/14 08:26:01;;;;;;;30.42;17.50;;;;;;;;;;4989944;28;20055;-56
2022/12/14 08:28:29;;;;;;;27.30;16.92;;;;;;;;;;4991137;28;20104;-54
2022/12/14 08:30:57;;;;;;;27.48;15.93;;;;;;;;;;4990935;28;20088;-54
2022/12/14 08:33:25;;;;;;;28.50;16.85;;;;;;;;;;4991099;28;20092;-55
2022/12/14 08:35:53;;;;;;;26.15;15.68;;;;;;;;;;4989951;28;20042;-55
2022/12/14 08:38:20;;;;;;;26.08;16.08;;;;;;;;;;4990073;28;20084;-56
2022/12/14 08:40:47;;;;;;;26.23;16.23;;;;;;;;;;4991340;28;20046;-55
2022/12/14 08:43:15;;;;;;;22.50;14.10;;;;;;;;;;4990939;28;20080;-55
2022/12/14 08:45:49;;;;;;;24.05;15.93;;;;;;;;;;4990951;28;20035;-56
2022/12/14 08:48:16;;;;;;;26.80;16.88;;;;;;;;;;4990740;28;20050;-54
2022/12/14 08:50:44;;;;;;;24.42;15.00;;;;;;;;;;4991192;28;20064;-55
2022/12/14 08:53:16;;;;;;;26.08;16.17;;;;;;;;;;4990618;28;20488;-54
2022/12/14 08:55:44;;;;;;;26.15;15.05;;;;;;;;;;4990654;28;20084;-51
2022/12/14 08:58:12;;;;;;;25.33;16.48;;;;;;;;;;4990710;28;20064;-56
2022/12/14 09:00:40;;;;;;;23.25;14.93;;;;;;;;;;4990714;28;20435;-56
2022/12/14 09:03:07;;;;;;;23.77;14.80;;;;;;;;;;4990487;28;20034;-55
2022/12/14 09:05:35;;;;;;;25.83;16.70;;;;;;;;;;4990296;28;20042;-55
2022/12/14 09:08:03;;;;;;;25.52;15.68;;;;;;;;;;4990367;28;20058;-57
2022/12/14 09:10:30;;;;;;;26.00;15.88;;;;;;;;;;4990382;28;20047;-56
2022/12/14 09:12:58;;;;;;;26.42;16.67;;;;;;;;;;4990397;28;20035;-55
2022/12/14 09:15:25;;;;;;;23.95;14.43;;;;;;;;;;4990189;28;20152;-49
2022/12/14 09:17:53;;;;;;;20.42;13.98;;;;;;;;;;4990278;28;20042;-54
2022/12/14 09:20:20;;;;;;;25.38;15.90;;;;;;;;;;4990376;28;20130;-55
2022/12/14 09:22:51;;;;;;;25.35;15.35;;;;;;;;;;4990319;28;20047;-56
2022/12/14 09:25:18;;;;;;;25.33;15.90;;;;;;;;;;4990395;28;20035;-56
2022/12/14 09:27:46;;;;;;;23.38;15.45;;;;;;;;;;4990122;28;20054;-55
2022/12/14 09:30:13;;;;;;;25.30;15.05;;;;;;;;;;4990483;28;20388;-56
2022/12/14 09:32:42;;;;;;;28.27;15.55;;;;;;;;;;4990057;28;20076;-54
2022/12/14 09:35:16;;;;;;;23.50;14.18;;;;;;;;;;4990062;28;20061;-53
2022/12/14 09:37:45;;;;;;;27.10;13.98;;;;;;;;;;4990122;28;20390;-50
2022/12/14 09:40:13;;;;;;;26.92;14.68;;;;;;;;;;4988847;28;20050;-53
2022/12/14 09:42:43;;;;;;;27.40;15.50;;;;;;;;;;4991356;28;20046;-55
2022/12/14 09:45:16;;;;;;;24.40;14.32;;;;;;;;;;4993935;28;20054;-55
2022/12/14 09:47:46;;;;;;;23.33;13.98;;;;;;;;;;4993415;28;20043;-56
2022/12/14 09:50:18;;;;;;;32.55;17.52;;;;;;;;;;4993445;28;20092;-55
2022/12/14 09:52:48;;;;;;;26.20;14.93;;;;;;;;;;4993536;28;20038;-56
2022/12/14 09:55:34;;;;;;;25.65;14.45;;;;;;;;;;4993361;28;20415;-54
2022/12/14 09:58:14;;;;;;;31.55;16.77;;;;;;;;;;4993359;28;20403;-56
2022/12/14 10:00:45;;;;;;;28.23;14.73;;;;;;;;;;4993469;28;20133;-56
2022/12/14 10:03:34;;;;;;;25.83;15.85;;;;;;;;;;4993267;28;20103;-56
2022/12/14 10:06:20;;;;;;;26.20;16.50;;;;;;;;;;4993333;28;20039;-57
2022/12/14 10:09:03;;;;;;;25.75;14.55;;;;;;;;;;4992007;28;20050;-56
2022/12/14 10:11:43;;;;;;;26.13;15.90;;;;;;;;;;4993188;28;20415;-53
2022/12/14 10:14:10;;;;;;;25.23;15.30;;;;;;;;;;4993196;28;20069;-56
2022/12/14 10:16:44;;;;;;;24.10;12.98;;;;;;;;;;4993137;28;20038;-53
2022/12/14 10:19:37;;;;;;;22.98;14.05;;;;;;;;;;4993166;28;20125;-55
2022/12/14 10:22:19;;;;;;;42.03;21.85;;;;;;;;;;4993082;28;20046;-53
2022/12/14 10:24:58;;;;;;;24.77;15.40;;;;;;;;;;4992900;28;20488;-55
2022/12/14 10:27:27;;;;;;;36.40;18.85;;;;;;;;;;4992679;28;20510;-56
2022/12/14 10:30:15;;;;;;;34.45;18.92;;;;;;;;;;4993011;28;20547;-56
2022/12/14 10:32:55;;;;;;;36.28;21.30;;;;;;;;;;4992853;28;20500;-53
2022/12/14 10:35:29;;;;;;;27.70;16.55;;;;;;;;;;4993073;28;20046;-54
2022/12/14 10:38:04;;;;;;;35.28;18.27;;;;;;;;;;4992619;28;20042;-55
2022/12/14 10:40:32;;;;;;;25.50;16.02;;;;;;;;;;4992591;28;20126;-55
2022/12/14 10:43:16;;;;;;;31.67;17.33;;;;;;;;;;4991620;28;20407;-55
2022/12/14 10:45:47;;;;;;;23.50;14.77;;;;;;;;;;4992534;28;20438;-54
2022/12/14 10:48:33;;;;;;;35.47;19.65;;;;;;;;;;4991332;28;20541;-55
2022/12/14 10:51:22;;;;;;;27.77;16.58;;;;;;;;;;4991322;28;20070;-50
2022/12/14 10:53:51;;;;;;;25.58;14.40;;;;;;;;;;4992265;28;20500;-54
2022/12/14 10:56:39;;;;;;;29.33;17.20;;;;;;;;;;4992721;28;20581;-54
2022/12/14 10:59:16;;;;;;;26.20;15.30;;;;;;;;;;4992661;28;20103;-55
2022/12/14 11:01:48;;;;;;;27.27;15.68;;;;;;;;;;4992741;28;20050;-56
2022/12/14 11:04:31;;;;;;;22.98;13.48;;;;;;;;;;4992520;28;20046;-55
2022/12/14 11:07:00;;;;;;;27.38;16.52;;;;;;;;;;4992184;28;20053;-55
2022/12/14 11:09:27;;;;;;;25.05;14.98;;;;;;;;;;4992473;28;20062;-56
2022/12/14 11:12:15;;;;;;;29.35;15.57;;;;;;;;;;4992431;28;20035;-56
2022/12/14 11:14:58;;;;;;;26.80;16.77;;;;;;;;;;4992194;28;20042;-56
2022/12/14 11:17:35;;;;;;;23.20;14.65;;;;;;;;;;4992360;28;20049;-56
2022/12/14 11:20:24;;;;;;;24.35;14.95;;;;;;;;;;4992019;28;20088;-57
2022/12/14 11:22:54;;;;;;;23.40;14.48;;;;;;;;;;4990835;28;20145;-57
2022/12/14 11:25:30;;;;;;;25.45;14.82;;;;;;;;;;4991832;28;20476;-56
2022/12/14 11:27:59;;;;;;;29.52;16.45;;;;;;;;;;4990702;28;20446;-56
2022/12/14 11:30:27;;;;;;;33.42;17.65;;;;;;;;;;4991813;28;20047;-54
2022/12/14 11:32:55;;;;;;;34.95;19.25;;;;;;;;;;4991882;28;20117;-55
2022/12/14 11:35:23;;;;;;;34.45;17.80;;;;;;;;;;4992073;28;20042;-53
2022/12/14 11:37:57;;;;;;;30.08;17.98;;;;;;;;;;4991992;28;20046;-55
2022/12/14 11:40:25;;;;;;;34.47;17.83;;;;;;;;;;4991804;28;20079;-52
2022/12/14 11:43:03;;;;;;;53.80;20.00;;;;;;;;;;4991879;28;20066;-56
2022/12/14 11:45:32;;;;;;;32.83;18.10;;;;;;;;;;4991695;28;20054;-56
2022/12/14 11:48:15;;;;;;;29.73;17.50;;;;;;;;;;4990659;28;20042;-56
2022/12/14 11:50:43;;;;;;;35.13;19.02;;;;;;;;;;4990291;28;20102;-56
2022/12/14 11:53:13;;;;;;;31.27;17.67;;;;;;;;;;4991465;28;20039;-57
2022/12/14 11:55:44;;;;;;;30.52;16.38;;;;;;;;;;4991423;28;20046;-56
2022/12/14 11:58:31;;;;;;;26.33;15.82;;;;;;;;;;4991468;28;20052;-56
2022/12/14 12:01:01;;;;;;;26.52;16.63;;;;;;;;;;4991534;28;20051;-55
2022/12/14 12:03:32;;;;;;;24.95;14.85;;;;;;;;;;4991160;28;20034;-56
2022/12/14 12:06:01;;;;;;;28.85;17.35;;;;;;;;;;4990209;28;20062;-57
2022/12/14 12:08:31;;;;;;;28.90;16.73;;;;;;;;;;4991151;28;20045;-57
2022/12/14 12:11:00;;;;;;;26.92;16.85;;;;;;;;;;4991129;28;20050;-57
2022/12/14 12:13:31;;;;;;;23.52;15.43;;;;;;;;;;4996514;28;20131;-57
2022/12/14 12:16:01;;;;;;;24.73;14.93;;;;;;;;;;4990986;28;20042;-55
2022/12/14 12:18:34;;;;;;;26.30;16.50;;;;;;;;;;4991204;28;20046;-56
2022/12/14 12:21:01;;;;;;;28.33;17.45;;;;;;;;;;4990231;28;20466;-57
2022/12/14 12:23:36;;;;;;;25.65;16.23;;;;;;;;;;4990224;28;20046;-57
2022/12/14 12:26:07;;;;;;;28.27;17.65;;;;;;;;;;4990863;28;20062;-56
2022/12/14 12:28:36;;;;;;;28.27;17.60;;;;;;;;;;4989933;28;20079;-57
2022/12/14 12:31:07;;;;;;;30.23;16.80;;;;;;;;;;4991104;28;20515;-57
2022/12/14 12:33:37;;;;;;;30.63;17.45;;;;;;;;;;4991130;28;20392;-57
2022/12/14 12:36:05;;;;;;;28.15;16.45;;;;;;;;;;4991315;28;20042;-57
2022/12/14 12:38:51;;;;;;;24.48;14.50;;;;;;;;;;4990980;28;20047;-57
2022/12/14 12:41:29;;;;;;;22.65;14.15;;;;;;;;;;4990882;28;20088;-57
2022/12/14 12:44:00;;;;;;;26.90;15.85;;;;;;;;;;4990878;28;20045;-57
2022/12/14 12:46:28;;;;;;;24.05;14.77;;;;;;;;;;4990799;28;20054;-57
2022/12/14 12:49:04;;;;;;;28.75;17.15;;;;;;;;;;4990671;28;20038;-57
2022/12/14 12:51:57;;;;;;;25.60;15.65;;;;;;;;;;4990818;28;20046;-56
2022/12/14 12:54:37;;;;;;;29.15;18.67;;;;;;;;;;4994560;28;20085;-57
2022/12/14 12:57:05;;;;;;;32.70;18.60;;;;;;;;;;4990849;28;20050;-57
2022/12/14 12:59:38;;;;;;;32.38;19.67;;;;;;;;;;4990648;28;20446;-57
2022/12/14 13:02:31;;;;;;;23.52;15.18;;;;;;;;;;4990663;28;20062;-57
2022/12/14 13:05:02;;;;;;;24.15;14.73;;;;;;;;;;4991739;28;20130;-56
2022/12/14 13:07:52;;;;;;;25.08;14.63;;;;;;;;;;4990696;28;20068;-54
2022/12/14 13:10:24;;;;;;;26.23;15.32;;;;;;;;;;4990446;28;20050;-57
2022/12/14 13:12:54;;;;;;;27.83;15.68;;;;;;;;;;4990416;28;20475;-55
2022/12/14 13:15:38;;;;;;;22.38;14.43;;;;;;;;;;4990717;28;20049;-56
2022/12/14 13:18:21;;;;;;;26.75;14.45;;;;;;;;;;4990210;28;20045;-55
2022/12/14 13:21:23;;;;;;;24.85;16.17;;;;;;;;;;4989012;28;20046;-56
2022/12/14 13:23:51;;;;;;;29.27;18.95;;;;;;;;;;4989071;28;20039;-55
2022/12/14 13:26:18;;;;;;;34.67;21.35;;;;;;;;;;4990262;28;20054;-56
2022/12/14 13:29:12;;;;;;;31.00;18.05;;;;;;;;;;4990088;28;20049;-57
2022/12/14 13:31:58;;;;;;;26.75;16.08;;;;;;;;;;4990223;28;20039;-53
2022/12/14 13:34:43;;;;;;;27.42;16.08;;;;;;;;;;4990202;28;20053;-56
2022/12/14 13:37:14;;;;;;;29.25;18.25;;;;;;;;;;4990243;28;20042;-53
2022/12/14 13:39:59;;;;;;;31.42;19.17;;;;;;;;;;4990190;28;20052;-55
2022/12/14 13:42:29;;;;;;;34.65;19.63;;;;;;;;;;4990263;28;20379;-55
2022/12/14 13:45:00;;;;;;;29.17;17.10;;;;;;;;;;4989924;28;20042;-56
2022/12/14 13:47:36;;;;;;;27.90;16.30;;;;;;;;;;4990007;28;20411;-56
2022/12/14 13:50:04;;;;;;;29.77;17.63;;;;;;;;;;4990035;28;20070;-57
2022/12/14 13:52:55;;;;;;;28.65;16.90;;;;;;;;;;4988953;28;20042;-56
2022/12/14 13:55:46;;;;;;;26.70;16.90;;;;;;;;;;4989854;28;20042;-56
2022/12/14 13:58:17;;;;;;;27.10;17.75;;;;;;;;;;4994276;28;20057;-56
2022/12/14 14:00:45;;;;;;;31.95;17.73;;;;;;;;;;4988674;28;20050;-56
2022/12/14 14:03:31;;;;;;;27.98;17.20;;;;;;;;;;4989552;28;20034;-56
2022/12/14 14:06:11;;;;;;;30.60;18.10;;;;;;;;;;4989881;28;20129;-55
2022/12/14 14:08:40;;;;;;;29.83;16.92;;;;;;;;;;4990112;28;20058;-55
2022/12/14 14:11:21;;;;;;;40.85;21.63;;;;;;;;;;4988425;28;20070;-56
2022/12/14 14:14:24;;;;;;;30.75;17.55;;;;;;;;;;4989633;28;20050;-57
2022/12/14 14:16:56;;;;;;;28.90;17.70;;;;;;;;;;4989291;28;20046;-55
2022/12/14 14:19:25;;;;;;;30.17;18.38;;;;;;;;;;4988772;28;20042;-55
2022/12/14 14:22:01;;;;;;;37.03;19.85;;;;;;;;;;4988070;28;20043;-56
2022/12/14 14:24:53;;;;;;;35.10;20.15;;;;;;;;;;4989001;28;20039;-56
2022/12/14 14:27:26;;;;;;;32.90;18.95;;;;;;;;;;4989151;28;20073;-56
2022/12/14 14:29:54;;;;;;;32.78;18.60;;;;;;;;;;4990646;28;20054;-54
2022/12/14 14:32:36;;;;;;;31.83;19.30;;;;;;;;;;4992448;28;20087;-54
2022/12/14 14:35:08;;;;;;;33.47;20.13;;;;;;;;;;4991943;28;20042;-56
2022/12/14 14:37:37;;;;;;;34.83;20.02;;;;;;;;;;4992565;28;20117;-55
2022/12/14 14:40:13;;;;;;;31.10;19.15;;;;;;;;;;5040602;28;20040;-55
2022/12/14 14:42:57;;;;;;;33.95;20.25;;;;;;;;;;5064078;28;20038;-55
2022/12/14 14:45:42;;;;;;;40.80;21.77;;;;;;;;;;4992348;28;20369;-55
2022/12/14 14:48:25;;;;;;;34.33;19.98;;;;;;;;;;4992494;28;20042;-55
2022/12/14 14:51:02;;;;;;;37.38;21.42;;;;;;;;;;4992879;28;20446;-56
2022/12/14 14:53:35;;;;;;;37.10;21.63;;;;;;;;;;4992079;28;20062;-56
2022/12/14 14:56:12;;;;;;;38.70;22.98;;;;;;;;;;4992326;28;20104;-51
2022/12/14 14:58:41;;;;;;;44.40;24.98;;;;;;;;;;4992153;28;20129;-55
2022/12/14 15:01:12;;;;;;;37.60;22.77;;;;;;;;;;4992087;28;20042;-55
2022/12/14 15:03:52;;;;;;;42.75;24.42;;;;;;;;;;4992150;28;20046;-55